Airfield :
LOGIN :

Register | Disclaimer

   EN    FR    IT 

 










Legend :    VFR   Marginal VFR   IFR   Intensive IFR   Very Intensive IFR
Visi :
Ceiling :
>= 8 km
>= 3000ft
5 to 8 km
1000 to 3000 ft
1500m to 5 km
500 to 1000 ft
800 to 1500m
200 to 500 ft
< 800m
< 200 ft
Symbols :   Thunderstorms  Fog  Heavy snow  Heavy precipitations  Wind > 20 kt
SIGMETs :     Misc.  Thunderstorms  Icing  Turbulence  Mountain Waves  Volcanic Ashes






- Airport Elevation : 288 ft
- IATA code : BZZ


EGVN - RAF Brize Norton

CURRENT METAR :
  • 241150Z 27003KT 9999 OVC018 07/06 Q1023 NOSIG RMK BLU BLU

EXPIRED METARs :
  • 241120Z 27003KT 9999 BKN020 07/06 Q1023 NOSIG RMK WHT WHT
  • 241050Z 24003KT 9999 FEW015 BKN020 07/05 Q1023 NOSIG
  • 241020Z 23003KT 9999 OVC020 06/05 Q1023 NOSIG RMK WHT WHT
  • 240950Z 26003KT 9999 FEW012 OVC017 06/05 Q1023 TEMPO SCT012 BKN018 RMK WHT TEMPO GRN
  • 240920Z 28003KT 9999 FEW014 OVC016 06/05 Q1023 NOSIG RMK WHT WHT

TAF TAF EGVN
Valid from the 24 at 12:00 until the 25 at 12:00 UTC


241029Z 2412/2512 VRB03KT 9999 BKN020
PROB30 2412/2417 BKN025
PROB30 2417/2506 BKN014
BECMG 2420/2423 7000 BR
PROB40 2506/2510 9999 NSW BKN025
BECMG 2510/2512 BKN009



MET'MAP, your aeronautical weather chart ! - Copyright ORBIFLY December 2007 - Disclaimer

ORBIFLY MET'MAP TEAM :

Programming & Development : Alexandra Zaïnal
Concept & original design : Baudouin d'Aumeries
Assistance for programming : Marc-Olivier Méhu
Technical & hardware support : Manuel Goepfert

Contact : metmap@orbifly.com




SOURCES & CREDITS :

   NOAA